Time,TemperatureF,DewpointF,PressureIn,WindDirection,WindDirectionDegrees,WindSpeedMPH,WindSpeedGustMPH,Humidity,HourlyPrecipIn,Conditions,Clouds,dailyrainin,SolarRadiationWatts/m^2,SoftwareType,DateUTC
2013-01-14 00:01:00,72.8,64.0,30.08,South,174,0.0,2.0,74,0.00,,OVC250,0.03,0.00,VWS V14.00,2013-01-14 05:01:00,
2013-01-14 00:04:00,72.8,64.0,30.08,South,174,4.0,4.0,74,0.00,,OVC250,0.00,0.00,VWS V14.00,2013-01-14 05:04:00,
2013-01-14 00:09:00,72.8,64.0,30.08,South,174,3.0,7.0,74,0.00,,OVC250,0.00,0.00,VWS V14.00,2013-01-14 05:09:00,
2013-01-14 00:14:00,72.7,63.9,30.08,South,174,0.0,0.0,74,0.00,,OVC250,0.00,0.00,VWS V14.00,2013-01-14 05:14:00,
2013-01-14 00:19:00,72.6,63.8,30.08,South,174,0.0,1.0,74,0.00,,OVC250,0.00,0.00,VWS V14.00,2013-01-14 05:19:00,
2013-01-14 00:24:00,72.5,63.8,30.08,South,174,0.0,0.0,74,0.00,,OVC250,0.00,0.00,VWS V14.00,2013-01-14 05:24:00,
2013-01-14 00:29:00,72.5,63.8,30.08,South,174,0.0,0.0,74,0.00,,OVC250,0.00,0.00,VWS V14.00,2013-01-14 05:29:00,
2013-01-14 00:34:00,72.4,63.7,30.09,South,174,0.0,1.0,74,0.00,,OVC250,0.00,0.00,VWS V14.00,2013-01-14 05:34:00,
2013-01-14 00:39:00,72.4,63.7,30.09,South,174,2.0,3.0,74,0.00,,OVC250,0.00,0.00,VWS V14.00,2013-01-14 05:39:00,
2013-01-14 00:44:00,72.3,63.2,30.09,South,174,3.0,3.0,73,0.00,,OVC250,0.00,0.00,VWS V14.00,2013-01-14 05:44:00,
2013-01-14 00:49:00,72.2,63.1,30.09,South,174,0.0,1.0,73,0.00,,OVC250,0.00,0.00,VWS V14.00,2013-01-14 05:49:00,
2013-01-14 00:54:00,72.1,63.0,30.09,South,174,0.0,0.0,73,0.00,,OVC250,0.00,0.00,VWS V14.00,2013-01-14 05:54:00,
2013-01-14 00:59:00,72.0,62.9,30.09,South,174,0.0,1.0,73,0.00,,OVC250,0.00,0.00,VWS V14.00,2013-01-14 05:59:00,
2013-01-14 01:04:00,71.9,62.8,30.09,South,174,0.0,0.0,73,0.00,,OVC250,0.00,0.00,VWS V14.00,2013-01-14 06:04:00,
2013-01-14 01:09:00,71.8,63.1,30.09,South,174,0.0,1.0,74,0.00,,OVC250,0.00,0.00,VWS V14.00,2013-01-14 06:09:00,
2013-01-14 01:14:00,71.6,62.9,30.09,South,174,0.0,0.0,74,0.00,,OVC250,0.00,0.00,VWS V14.00,2013-01-14 06:14:00,
2013-01-14 01:19:00,71.4,62.7,30.09,South,174,0.0,1.0,74,0.00,,OVC250,0.00,0.00,VWS V14.00,2013-01-14 06:19:00,
2013-01-14 01:24:00,71.3,62.6,30.09,South,174,0.0,0.0,74,0.00,,OVC250,0.00,0.00,VWS V14.00,2013-01-14 06:24:00,
2013-01-14 01:29:00,71.1,62.4,30.09,South,174,0.0,0.0,74,0.00,,OVC250,0.00,0.00,VWS V14.00,2013-01-14 06:29:00,
2013-01-14 01:34:00,71.0,62.7,30.08,South,174,0.0,0.0,75,0.00,,OVC250,0.00,0.00,VWS V14.00,2013-01-14 06:34:00,
2013-01-14 01:39:00,70.9,62.6,30.08,South,174,0.0,0.0,75,0.00,,OVC250,0.00,0.00,VWS V14.00,2013-01-14 06:39:00,
2013-01-14 01:44:00,70.8,62.9,30.09,South,174,0.0,0.0,76,0.00,,OVC250,0.00,0.00,VWS V14.00,2013-01-14 06:44:00,
2013-01-14 01:49:00,70.7,62.8,30.09,South,174,0.0,0.0,76,0.00,,OVC250,0.00,0.00,VWS V14.00,2013-01-14 06:49:00,
2013-01-14 01:54:00,70.6,62.7,30.09,South,174,0.0,0.0,76,0.00,,OVC250,0.00,0.00,VWS V14.00,2013-01-14 06:54:00,
2013-01-14 01:59:00,70.5,62.6,30.10,South,174,0.0,0.0,76,0.00,,OVC250,0.00,0.00,VWS V14.00,2013-01-14 06:59:00,
2013-01-14 02:04:00,70.4,62.8,30.10,South,174,0.0,0.0,77,0.00,,OVC250,0.00,0.00,VWS V14.00,2013-01-14 07:04:00,
2013-01-14 02:09:00,70.3,63.1,30.10,South,174,0.0,0.0,78,0.00,,OVC250,0.00,0.00,VWS V14.00,2013-01-14 07:09:00,
2013-01-14 02:14:00,70.1,63.3,30.09,South,174,0.0,0.0,79,0.00,,OVC250,0.00,0.00,VWS V14.00,2013-01-14 07:14:00,
2013-01-14 02:19:00,69.7,62.9,30.09,South,174,0.0,0.0,79,0.00,,OVC250,0.00,0.00,VWS V14.00,2013-01-14 07:19:00,
2013-01-14 02:24:00,69.3,62.9,30.09,South,174,0.0,0.0,80,0.00,,OVC250,0.00,0.00,VWS V14.00,2013-01-14 07:24:00,
2013-01-14 02:29:00,69.1,63.0,30.09,South,174,0.0,0.0,81,0.00,,OVC250,0.00,0.00,VWS V14.00,2013-01-14 07:29:00,
2013-01-14 02:34:00,69.0,63.3,30.09,South,174,0.0,0.0,82,0.00,,OVC250,0.00,0.00,VWS V14.00,2013-01-14 07:34:00,
2013-01-14 02:39:00,68.8,63.4,30.09,South,174,0.0,0.0,83,0.00,,OVC250,0.00,0.00,VWS V14.00,2013-01-14 07:39:00,
2013-01-14 02:44:00,68.6,63.6,30.09,South,174,0.0,0.0,84,0.00,,OVC250,0.00,0.00,VWS V14.00,2013-01-14 07:44:00,
2013-01-14 02:49:00,68.5,63.5,30.09,South,174,0.0,0.0,84,0.00,,OVC250,0.00,0.00,VWS V14.00,2013-01-14 07:49:00,
2013-01-14 02:54:00,68.3,63.6,30.09,South,174,0.0,0.0,85,0.00,,OVC250,0.00,0.00,VWS V14.00,2013-01-14 07:54:00,
2013-01-14 02:59:00,68.0,63.3,30.09,South,174,0.0,0.0,85,0.00,,OVC250,0.00,0.00,VWS V14.00,2013-01-14 07:59:00,
2013-01-14 03:04:00,67.8,63.5,30.09,South,174,0.0,0.0,86,0.00,,OVC250,0.00,0.00,VWS V14.00,2013-01-14 08:04:00,
2013-01-14 03:10:00,67.7,63.4,30.08,South,174,0.0,0.0,86,0.00,,OVC250,0.00,0.00,VWS V14.00,2013-01-14 08:10:00,
2013-01-14 03:15:00,67.6,63.3,30.09,South,174,0.0,0.0,86,0.00,,OVC250,0.00,0.00,VWS V14.00,2013-01-14 08:15:00,
2013-01-14 03:20:00,67.5,63.5,30.09,South,174,0.0,0.0,87,0.00,,OVC250,0.00,0.00,VWS V14.00,2013-01-14 08:20:00,
2013-01-14 03:25:00,67.2,63.2,30.09,South,174,0.0,0.0,87,0.00,,OVC250,0.00,0.00,VWS V14.00,2013-01-14 08:25:00,
2013-01-14 03:30:00,67.1,63.1,30.09,South,174,0.0,0.0,87,0.00,,OVC250,0.00,0.00,VWS V14.00,2013-01-14 08:30:00,
2013-01-14 03:35:00,67.0,63.0,30.08,South,174,0.0,0.0,87,0.00,,OVC250,0.00,0.00,VWS V14.00,2013-01-14 08:35:00,
2013-01-14 03:40:00,67.0,63.3,30.08,South,174,0.0,0.0,88,0.00,,OVC250,0.00,0.00,VWS V14.00,2013-01-14 08:40:00,
2013-01-14 03:45:00,67.0,63.3,30.08,South,174,0.0,0.0,88,0.00,,OVC250,0.00,0.00,VWS V14.00,2013-01-14 08:45:00,
2013-01-14 03:50:00,66.8,63.1,30.08,South,174,0.0,0.0,88,0.00,,OVC250,0.00,0.00,VWS V14.00,2013-01-14 08:50:00,
2013-01-14 03:55:00,66.6,62.9,30.08,South,174,0.0,0.0,88,0.00,,OVC250,0.00,0.00,VWS V14.00,2013-01-14 08:55:00,
2013-01-14 04:00:00,66.5,62.8,30.08,South,174,0.0,0.0,88,0.00,,OVC250,0.00,0.00,VWS V14.00,2013-01-14 09:00:00,
2013-01-14 04:05:00,66.4,62.7,30.08,South,174,0.0,0.0,88,0.00,,OVC250,0.00,0.00,VWS V14.00,2013-01-14 09:05:00,
2013-01-14 04:10:00,66.4,63.1,30.08,South,174,0.0,0.0,89,0.00,,OVC250,0.00,0.00,VWS V14.00,2013-01-14 09:10:00,
2013-01-14 04:15:00,66.4,63.1,30.08,South,174,0.0,0.0,89,0.00,,OVC250,0.00,0.00,VWS V14.00,2013-01-14 09:15:00,
2013-01-14 04:20:00,66.5,63.2,30.08,South,174,0.0,0.0,89,0.00,,OVC250,0.00,0.00,VWS V14.00,2013-01-14 09:20:00,
2013-01-14 04:25:00,66.6,63.3,30.08,South,174,0.0,0.0,89,0.00,,OVC250,0.00,0.00,VWS V14.00,2013-01-14 09:25:00,
2013-01-14 04:30:00,66.6,63.3,30.08,South,174,0.0,0.0,89,0.00,,OVC250,0.00,0.00,VWS V14.00,2013-01-14 09:30:00,
2013-01-14 04:35:00,66.5,63.2,30.08,South,174,0.0,0.0,89,0.00,,OVC250,0.00,0.00,VWS V14.00,2013-01-14 09:35:00,
2013-01-14 04:40:00,66.2,62.9,30.08,South,174,0.0,0.0,89,0.00,,OVC250,0.00,0.00,VWS V14.00,2013-01-14 09:40:00,
2013-01-14 04:45:00,66.1,62.8,30.08,South,174,0.0,0.0,89,0.00,,OVC250,0.00,0.00,VWS V14.00,2013-01-14 09:45:00,
2013-01-14 04:50:00,66.0,62.7,30.08,South,174,0.0,0.0,89,0.00,,OVC250,0.00,0.00,VWS V14.00,2013-01-14 09:50:00,
2013-01-14 04:55:00,66.0,63.0,30.08,South,174,0.0,0.0,90,0.00,,OVC250,0.00,0.00,VWS V14.00,2013-01-14 09:55:00,
2013-01-14 05:00:00,65.9,62.9,30.08,South,174,0.0,0.0,90,0.00,,OVC250,0.00,0.00,VWS V14.00,2013-01-14 10:00:00,
2013-01-14 05:05:00,65.7,62.7,30.08,South,174,0.0,0.0,90,0.00,,OVC250,0.00,0.00,VWS V14.00,2013-01-14 10:05:00,
2013-01-14 05:10:00,65.7,62.7,30.08,South,174,0.0,0.0,90,0.00,,OVC250,0.00,0.00,VWS V14.00,2013-01-14 10:10:00,
2013-01-14 05:15:00,65.6,62.6,30.08,South,174,0.0,0.0,90,0.00,,OVC250,0.00,0.00,VWS V14.00,2013-01-14 10:15:00,
2013-01-14 05:20:00,65.4,62.4,30.08,South,174,0.0,0.0,90,0.00,,OVC250,0.00,0.00,VWS V14.00,2013-01-14 10:20:00,
2013-01-14 05:25:00,65.2,62.2,30.08,South,174,0.0,0.0,90,0.00,,OVC250,0.00,0.00,VWS V14.00,2013-01-14 10:25:00,
2013-01-14 05:30:00,65.1,62.1,30.08,South,174,0.0,0.0,90,0.00,,OVC250,0.00,0.00,VWS V14.00,2013-01-14 10:30:00,
2013-01-14 05:35:00,65.2,62.2,30.08,South,174,0.0,0.0,90,0.00,,OVC250,0.00,0.00,VWS V14.00,2013-01-14 10:35:00,
2013-01-14 05:40:00,65.4,62.4,30.08,South,174,0.0,0.0,90,0.00,,OVC250,0.00,0.00,VWS V14.00,2013-01-14 10:40:00,
2013-01-14 05:45:00,65.4,62.4,30.08,South,174,0.0,0.0,90,0.00,,OVC250,0.00,0.00,VWS V14.00,2013-01-14 10:45:00,
2013-01-14 05:50:00,65.4,62.7,30.09,South,174,0.0,0.0,91,0.00,,OVC250,0.00,0.00,VWS V14.00,2013-01-14 10:50:00,
2013-01-14 05:55:00,65.3,62.3,30.09,South,174,0.0,0.0,90,0.00,,OVC250,0.00,0.00,VWS V14.00,2013-01-14 10:55:00,
2013-01-14 06:00:00,65.2,62.2,30.09,South,174,0.0,0.0,90,0.00,,OVC250,0.00,0.00,VWS V14.00,2013-01-14 11:00:00,
2013-01-14 06:05:00,65.2,62.2,30.09,South,174,0.0,0.0,90,0.00,,OVC250,0.00,0.00,VWS V14.00,2013-01-14 11:05:00,
2013-01-14 06:10:00,65.1,62.4,30.09,South,174,0.0,0.0,91,0.00,,OVC250,0.00,0.00,VWS V14.00,2013-01-14 11:10:00,
2013-01-14 06:15:00,65.2,62.5,30.09,South,174,0.0,0.0,91,0.00,,OVC250,0.00,0.00,VWS V14.00,2013-01-14 11:15:00,
2013-01-14 06:20:00,65.1,62.4,30.10,South,174,0.0,0.0,91,0.00,,OVC250,0.00,0.00,VWS V14.00,2013-01-14 11:20:00,
2013-01-14 06:25:00,65.0,62.3,30.10,South,174,0.0,0.0,91,0.00,,OVC250,0.00,0.00,VWS V14.00,2013-01-14 11:25:00,
2013-01-14 06:30:00,64.9,62.2,30.10,South,174,0.0,0.0,91,0.00,,OVC250,0.00,0.00,VWS V14.00,2013-01-14 11:30:00,
2013-01-14 06:36:00,64.8,62.1,30.10,South,174,0.0,0.0,91,0.00,,OVC250,0.00,0.00,VWS V14.00,2013-01-14 11:36:00,
2013-01-14 06:41:00,64.7,62.0,30.11,South,174,0.0,0.0,91,0.00,,OVC250,0.00,0.00,VWS V14.00,2013-01-14 11:41:00,
2013-01-14 06:46:00,64.7,62.0,30.11,South,174,0.0,0.0,91,0.00,,OVC250,0.00,0.00,VWS V14.00,2013-01-14 11:46:00,
2013-01-14 06:51:00,64.6,61.9,30.10,South,174,0.0,0.0,91,0.00,,OVC250,0.00,0.00,VWS V14.00,2013-01-14 11:51:00,
2013-01-14 06:56:00,64.6,61.9,30.10,South,174,0.0,0.0,91,0.00,,OVC250,0.00,0.00,VWS V14.00,2013-01-14 11:56:00,
2013-01-14 07:01:00,64.5,61.8,30.11,South,174,0.0,0.0,91,0.00,,OVC250,0.00,0.00,VWS V14.00,2013-01-14 12:01:00,
2013-01-14 07:06:00,64.4,61.7,30.10,South,174,0.0,0.0,91,0.00,,OVC250,0.00,0.00,VWS V14.00,2013-01-14 12:06:00,
2013-01-14 07:11:00,64.5,61.8,30.11,South,174,0.0,0.0,91,0.00,,OVC250,0.00,0.00,VWS V14.00,2013-01-14 12:11:00,
2013-01-14 07:16:00,64.5,61.8,30.11,South,174,0.0,0.0,91,0.00,,OVC250,0.00,5.00,VWS V14.00,2013-01-14 12:16:00,
2013-01-14 07:21:00,64.4,61.7,30.11,South,174,0.0,0.0,91,0.00,,OVC250,0.00,7.00,VWS V14.00,2013-01-14 12:21:00,
2013-01-14 07:26:00,64.3,61.6,30.11,South,174,0.0,0.0,91,0.00,,OVC250,0.00,14.00,VWS V14.00,2013-01-14 12:26:00,
2013-01-14 07:31:00,64.2,61.5,30.11,South,174,0.0,0.0,91,0.00,,OVC250,0.00,28.00,VWS V14.00,2013-01-14 12:31:00,
2013-01-14 07:36:00,64.3,61.6,30.11,South,174,0.0,0.0,91,0.00,,FEW050,0.00,30.00,VWS V14.00,2013-01-14 12:36:00,
2013-01-14 07:41:00,64.5,62.1,30.11,South,174,0.0,0.0,92,0.00,,FEW050,0.00,33.00,VWS V14.00,2013-01-14 12:41:00,
2013-01-14 07:46:00,64.8,62.1,30.11,South,174,0.0,0.0,91,0.00,,FEW050,0.00,32.00,VWS V14.00,2013-01-14 12:46:00,
2013-01-14 07:51:00,65.1,62.4,30.11,South,174,0.0,0.0,91,0.00,,FEW050,0.00,25.00,VWS V14.00,2013-01-14 12:51:00,
2013-01-14 07:56:00,65.4,62.7,30.11,South,174,0.0,0.0,91,0.00,,FEW050,0.00,23.00,VWS V14.00,2013-01-14 12:56:00,
2013-01-14 08:01:00,65.6,62.9,30.11,South,174,0.0,0.0,91,0.00,,FEW050,0.00,28.00,VWS V14.00,2013-01-14 13:01:00,
2013-01-14 08:06:00,66.0,63.3,30.11,South,174,0.0,0.0,91,0.00,,FEW050,0.00,46.00,VWS V14.00,2013-01-14 13:06:00,
2013-01-14 08:11:00,66.5,63.8,30.11,South,174,0.0,0.0,91,0.00,,FEW050,0.00,33.00,VWS V14.00,2013-01-14 13:11:00,
2013-01-14 08:16:00,67.0,64.6,30.11,South,174,0.0,0.0,92,0.00,,FEW050,0.00,37.00,VWS V14.00,2013-01-14 13:16:00,
2013-01-14 08:21:00,67.5,64.5,30.11,South,174,0.0,0.0,90,0.00,,FEW050,0.00,39.00,VWS V14.00,2013-01-14 13:21:00,
2013-01-14 08:26:00,67.9,64.9,30.11,South,174,0.0,0.0,90,0.00,,FEW050,0.00,54.00,VWS V14.00,2013-01-14 13:26:00,
2013-01-14 08:31:00,68.5,65.5,30.11,South,174,0.0,0.0,90,0.00,,FEW050,0.00,60.00,VWS V14.00,2013-01-14 13:31:00,
2013-01-14 08:36:00,69.2,65.8,30.11,South,174,0.0,2.0,89,0.00,,FEW050,0.00,67.00,VWS V14.00,2013-01-14 13:36:00,
2013-01-14 08:41:00,70.0,66.3,30.11,South,174,0.0,1.0,88,0.00,,FEW050,0.00,70.00,VWS V14.00,2013-01-14 13:41:00,
2013-01-14 08:46:00,70.9,66.5,30.11,South,174,3.0,6.0,86,0.00,,FEW050,0.00,69.00,VWS V14.00,2013-01-14 13:46:00,
2013-01-14 08:51:00,71.8,66.4,30.11,South,184,4.0,8.0,83,0.00,,FEW050,0.00,81.00,VWS V14.00,2013-01-14 13:51:00,
2013-01-14 08:56:00,72.6,65.7,30.11,SSE,165,5.0,10.0,79,0.00,,FEW050,0.00,86.00,VWS V14.00,2013-01-14 13:56:00,
2013-01-14 09:01:00,73.5,65.5,30.11,South,169,4.0,12.0,76,0.00,,FEW050,0.00,93.00,VWS V14.00,2013-01-14 14:01:00,
2013-01-14 09:06:00,74.1,65.7,30.11,South,179,7.0,8.0,75,0.00,,FEW050,0.00,102.00,VWS V14.00,2013-01-14 14:06:00,
2013-01-14 09:11:00,74.6,65.8,30.11,South,176,4.0,5.0,74,0.00,,FEW050,0.00,70.00,VWS V14.00,2013-01-14 14:11:00,
2013-01-14 09:16:00,75.0,65.8,30.11,SSW,193,3.0,12.0,73,0.00,,FEW050,0.00,120.00,VWS V14.00,2013-01-14 14:16:00,
2013-01-14 09:21:00,75.2,65.6,30.12,South,175,5.0,14.0,72,0.00,,FEW050,0.00,114.00,VWS V14.00,2013-01-14 14:21:00,
2013-01-14 09:26:00,75.5,65.8,30.12,SSE,167,11.0,11.0,72,0.00,,FEW050,0.00,100.00,VWS V14.00,2013-01-14 14:26:00,
2013-01-14 09:31:00,75.6,65.9,30.12,SSW,200,7.0,10.0,72,0.00,,FEW050,0.00,91.00,VWS V14.00,2013-01-14 14:31:00,
2013-01-14 09:36:00,75.8,65.3,30.12,South,181,7.0,14.0,70,0.00,,FEW050,0.00,93.00,VWS V14.00,2013-01-14 14:36:00,
2013-01-14 09:41:00,76.0,64.7,30.12,South,178,12.0,18.0,68,0.00,,FEW050,0.00,90.00,VWS V14.00,2013-01-14 14:41:00,
2013-01-14 09:46:00,76.1,64.8,30.12,South,178,10.0,13.0,68,0.00,,FEW050,0.00,90.00,VWS V14.00,2013-01-14 14:46:00,
2013-01-14 09:51:00,76.1,64.8,30.12,South,178,5.0,14.0,68,0.00,,FEW050,0.00,42.00,VWS V14.00,2013-01-14 14:51:00,
2013-01-14 09:56:00,76.3,65.0,30.12,SSE,157,4.0,6.0,68,0.00,,FEW050,0.00,95.00,VWS V14.00,2013-01-14 14:56:00,
2013-01-14 10:01:00,76.7,65.8,30.13,South,184,6.0,10.0,69,0.00,,FEW050,0.00,98.00,VWS V14.00,2013-01-14 15:01:00,
2013-01-14 10:06:00,76.5,66.0,30.13,SSW,193,6.0,11.0,70,0.00,,FEW050,0.00,54.00,VWS V14.00,2013-01-14 15:06:00,
2013-01-14 10:11:00,76.2,66.5,30.12,South,187,9.0,15.0,72,0.00,,FEW050,0.00,79.00,VWS V14.00,2013-01-14 15:11:00,
2013-01-14 10:16:00,76.3,66.2,30.12,SSE,163,1.0,12.0,71,0.00,,FEW050,0.00,102.00,VWS V14.00,2013-01-14 15:16:00,
2013-01-14 10:21:00,76.3,66.2,30.12,South,179,9.0,10.0,71,0.00,,FEW050,0.00,127.00,VWS V14.00,2013-01-14 15:21:00,
2013-01-14 10:26:00,76.4,66.3,30.12,SSE,167,6.0,10.0,71,0.00,,FEW050,0.00,105.00,VWS V14.00,2013-01-14 15:26:00,
2013-01-14 10:31:00,76.5,66.4,30.12,SSE,166,2.0,6.0,71,0.00,,FEW060,0.00,127.00,VWS V14.00,2013-01-14 15:31:00,
2013-01-14 10:36:00,76.5,65.6,30.12,South,180,6.0,9.0,69,0.00,,FEW060,0.00,128.00,VWS V14.00,2013-01-14 15:36:00,
2013-01-14 10:41:00,76.7,65.3,30.12,SSE,154,12.0,14.0,68,0.00,,FEW060,0.00,118.00,VWS V14.00,2013-01-14 15:41:00,
2013-01-14 10:47:00,76.9,64.2,30.12,SSW,196,11.0,19.0,65,0.00,,FEW060,0.00,58.00,VWS V14.00,2013-01-14 15:47:00,
2013-01-14 10:52:00,76.6,64.8,30.12,SSE,155,4.0,8.0,67,0.00,,FEW060,0.00,128.00,VWS V14.00,2013-01-14 15:52:00,
2013-01-14 10:57:00,76.6,64.4,30.12,SSE,156,7.0,12.0,66,0.00,,FEW060,0.00,125.00,VWS V14.00,2013-01-14 15:57:00,
2013-01-14 11:02:00,76.9,64.7,30.12,SE,144,12.0,12.0,66,0.00,,FEW060,0.00,111.00,VWS V14.00,2013-01-14 16:02:00,
2013-01-14 11:06:00,76.9,64.7,30.11,SSE,157,6.0,12.0,66,0.00,,FEW060,0.00,100.00,VWS V14.00,2013-01-14 16:06:00,
2013-01-14 11:11:00,76.8,64.6,30.11,SSW,194,12.0,17.0,66,0.00,,FEW060,0.00,105.00,VWS V14.00,2013-01-14 16:11:00,
2013-01-14 11:16:00,77.0,64.3,30.11,SSW,204,0.0,3.0,65,0.00,,FEW060,0.00,114.00,VWS V14.00,2013-01-14 16:16:00,
2013-01-14 11:22:00,77.5,64.8,30.11,SSW,196,6.0,15.0,65,0.00,,FEW060,0.00,118.00,VWS V14.00,2013-01-14 16:22:00,
2013-01-14 11:27:00,77.7,64.1,30.11,SSE,149,7.0,16.0,63,0.00,,FEW060,0.00,125.00,VWS V14.00,2013-01-14 16:27:00,
2013-01-14 11:32:00,77.6,64.0,30.11,SSE,160,9.0,10.0,63,0.00,,FEW035,0.00,127.00,VWS V14.00,2013-01-14 16:32:00,
2013-01-14 11:37:00,77.8,64.7,30.11,SSW,192,3.0,10.0,64,0.00,,FEW035,0.00,128.00,VWS V14.00,2013-01-14 16:37:00,
2013-01-14 11:42:00,78.0,64.8,30.11,South,190,4.0,5.0,64,0.00,,FEW035,0.00,132.00,VWS V14.00,2013-01-14 16:42:00,
2013-01-14 11:47:00,78.1,64.5,30.10,SSE,164,4.0,10.0,63,0.00,,FEW035,0.00,130.00,VWS V14.00,2013-01-14 16:47:00,
2013-01-14 11:52:00,77.8,64.7,30.10,SSE,163,10.0,12.0,64,0.00,,FEW035,0.00,135.00,VWS V14.00,2013-01-14 16:52:00,
2013-01-14 11:57:00,77.9,64.3,30.10,SSE,155,14.0,15.0,63,0.00,,FEW035,0.00,130.00,VWS V14.00,2013-01-14 16:57:00,
2013-01-14 12:02:00,77.8,64.7,30.10,South,174,1.0,10.0,64,0.00,,FEW035,0.00,130.00,VWS V14.00,2013-01-14 17:02:00,
2013-01-14 12:07:00,78.0,64.8,30.10,South,190,6.0,7.0,64,0.00,,FEW035,0.00,121.00,VWS V14.00,2013-01-14 17:07:00,
2013-01-14 12:12:00,77.8,64.2,30.10,SSE,153,7.0,11.0,63,0.00,,FEW035,0.00,121.00,VWS V14.00,2013-01-14 17:12:00,
2013-01-14 12:17:00,78.0,64.4,30.09,SW,235,6.0,9.0,63,0.00,,FEW035,0.00,130.00,VWS V14.00,2013-01-14 17:17:00,
2013-01-14 12:22:00,78.1,64.0,30.09,South,177,4.0,12.0,62,0.00,,FEW035,0.00,130.00,VWS V14.00,2013-01-14 17:22:00,
2013-01-14 12:27:00,78.1,64.0,30.09,SSE,165,5.0,11.0,62,0.00,,FEW035,0.00,125.00,VWS V14.00,2013-01-14 17:27:00,
2013-01-14 12:32:00,78.0,63.9,30.09,SSE,162,3.0,7.0,62,0.00,,FEW035,0.00,127.00,VWS V14.00,2013-01-14 17:32:00,
2013-01-14 12:37:00,77.7,64.1,30.09,SSE,161,8.0,8.0,63,0.00,,FEW035,0.00,116.00,VWS V14.00,2013-01-14 17:37:00,
2013-01-14 12:42:00,77.5,64.4,30.09,South,191,4.0,7.0,64,0.00,,FEW035,0.00,111.00,VWS V14.00,2013-01-14 17:42:00,
2013-01-14 12:47:00,77.8,64.2,30.09,South,181,4.0,9.0,63,0.00,,FEW035,0.00,135.00,VWS V14.00,2013-01-14 17:47:00,
2013-01-14 12:52:00,78.1,64.5,30.09,SSW,202,0.0,7.0,63,0.00,,FEW035,0.00,62.00,VWS V14.00,2013-01-14 17:52:00,
2013-01-14 12:57:00,77.9,64.3,30.09,SSW,194,11.0,13.0,63,0.00,,FEW035,0.00,142.00,VWS V14.00,2013-01-14 17:57:00,
2013-01-14 13:02:00,78.0,64.8,30.08,South,190,7.0,13.0,64,0.00,,FEW035,0.00,151.00,VWS V14.00,2013-01-14 18:02:00,
2013-01-14 13:07:00,78.2,65.0,30.08,South,172,5.0,6.0,64,0.00,,FEW035,0.00,163.00,VWS V14.00,2013-01-14 18:07:00,
2013-01-14 13:12:00,78.5,64.9,30.08,South,171,4.0,9.0,63,0.00,,FEW035,0.00,162.00,VWS V14.00,2013-01-14 18:12:00,
2013-01-14 13:17:00,78.7,64.6,30.08,SSW,203,12.0,14.0,62,0.00,,FEW035,0.00,54.00,VWS V14.00,2013-01-14 18:17:00,
2013-01-14 13:22:00,78.5,65.3,30.07,South,186,3.0,9.0,64,0.00,,FEW035,0.00,144.00,VWS V14.00,2013-01-14 18:22:00,
2013-01-14 13:27:00,78.6,65.0,30.07,SSW,203,11.0,13.0,63,0.00,,FEW035,0.00,144.00,VWS V14.00,2013-01-14 18:27:00,
2013-01-14 13:32:00,78.6,65.0,30.07,SSW,205,12.0,14.0,63,0.00,,FEW030,0.00,141.00,VWS V14.00,2013-01-14 18:32:00,
2013-01-14 13:37:00,78.8,65.6,30.07,South,171,6.0,7.0,64,0.00,,FEW030,0.00,135.00,VWS V14.00,2013-01-14 18:37:00,
2013-01-14 13:42:00,78.8,65.2,30.07,SSE,155,6.0,12.0,63,0.00,,FEW030,0.00,137.00,VWS V14.00,2013-01-14 18:42:00,
2013-01-14 13:47:00,78.5,65.3,30.08,SE,133,4.0,9.0,64,0.00,,FEW030,0.00,137.00,VWS V14.00,2013-01-14 18:47:00,
2013-01-14 13:52:00,78.5,65.8,30.08,SSE,152,4.0,9.0,65,0.00,,FEW030,0.00,118.00,VWS V14.00,2013-01-14 18:52:00,
2013-01-14 13:57:00,78.8,65.6,30.08,South,175,2.0,6.0,64,0.00,,FEW030,0.00,116.00,VWS V14.00,2013-01-14 18:57:00,
2013-01-14 14:02:00,78.9,65.7,30.08,SSE,164,3.0,9.0,64,0.00,,FEW030,0.00,114.00,VWS V14.00,2013-01-14 19:02:00,
2013-01-14 14:07:00,79.2,66.0,30.08,SW,217,10.0,13.0,64,0.00,,FEW030,0.00,113.00,VWS V14.00,2013-01-14 19:07:00,
2013-01-14 14:12:00,78.8,65.6,30.08,South,191,6.0,8.0,64,0.00,,FEW030,0.00,111.00,VWS V14.00,2013-01-14 19:12:00,
2013-01-14 14:17:00,78.8,65.6,30.08,SSE,167,5.0,9.0,64,0.00,,FEW030,0.00,113.00,VWS V14.00,2013-01-14 19:17:00,
2013-01-14 14:22:00,78.8,65.2,30.08,SSW,209,5.0,9.0,63,0.00,,FEW030,0.00,113.00,VWS V14.00,2013-01-14 19:22:00,
2013-01-14 14:27:00,78.7,65.5,30.08,SSW,209,6.0,13.0,64,0.00,,FEW030,0.00,44.00,VWS V14.00,2013-01-14 19:27:00,
2013-01-14 14:32:00,78.7,65.5,30.08,SSE,150,8.0,10.0,64,0.00,,FEW030,0.00,104.00,VWS V14.00,2013-01-14 19:32:00,
2013-01-14 14:37:00,78.6,65.9,30.08,South,175,6.0,6.0,65,0.00,,FEW030,0.00,102.00,VWS V14.00,2013-01-14 19:37:00,
2013-01-14 14:42:00,78.6,65.4,30.07,South,176,2.0,11.0,64,0.00,,FEW030,0.00,102.00,VWS V14.00,2013-01-14 19:42:00,
2013-01-14 14:47:00,78.6,65.4,30.08,SSW,202,9.0,13.0,64,0.00,,FEW030,0.00,77.00,VWS V14.00,2013-01-14 19:47:00,
2013-01-14 14:52:00,78.5,65.8,30.07,South,175,6.0,6.0,65,0.00,,FEW030,0.00,98.00,VWS V14.00,2013-01-14 19:52:00,
2013-01-14 14:57:00,78.4,65.2,30.07,South,182,7.0,10.0,64,0.00,,FEW030,0.00,100.00,VWS V14.00,2013-01-14 19:57:00,
2013-01-14 15:02:00,78.1,64.9,30.08,South,180,9.0,12.0,64,0.00,,FEW030,0.00,97.00,VWS V14.00,2013-01-14 20:02:00,
2013-01-14 15:07:00,78.1,65.4,30.08,SSW,194,10.0,10.0,65,0.00,,FEW030,0.00,91.00,VWS V14.00,2013-01-14 20:07:00,
2013-01-14 15:12:00,78.1,64.9,30.08,South,189,6.0,15.0,64,0.00,,FEW030,0.00,83.00,VWS V14.00,2013-01-14 20:12:00,
2013-01-14 15:18:00,78.2,65.5,30.08,South,191,1.0,11.0,65,0.00,,FEW030,0.00,42.00,VWS V14.00,2013-01-14 20:18:00,
2013-01-14 15:23:00,78.2,65.0,30.08,SSE,163,8.0,12.0,64,0.00,,FEW030,0.00,84.00,VWS V14.00,2013-01-14 20:23:00,
2013-01-14 15:28:00,77.9,65.2,30.08,South,178,4.0,12.0,65,0.00,,FEW030,0.00,44.00,VWS V14.00,2013-01-14 20:28:00,
2013-01-14 15:33:00,77.8,65.1,30.08,SSE,159,12.0,14.0,65,0.00,,FEW030,0.00,84.00,VWS V14.00,2013-01-14 20:33:00,
2013-01-14 15:38:00,77.8,64.7,30.08,SSE,168,9.0,15.0,64,0.00,,FEW030,0.00,77.00,VWS V14.00,2013-01-14 20:38:00,
2013-01-14 15:43:00,77.9,64.8,30.08,South,175,4.0,12.0,64,0.00,,FEW030,0.00,76.00,VWS V14.00,2013-01-14 20:43:00,
2013-01-14 15:48:00,77.8,64.7,30.09,SSE,168,4.0,7.0,64,0.00,,FEW030,0.00,81.00,VWS V14.00,2013-01-14 20:48:00,
2013-01-14 15:53:00,77.8,65.5,30.09,SSE,161,5.0,7.0,66,0.00,,FEW030,0.00,84.00,VWS V14.00,2013-01-14 20:53:00,
2013-01-14 15:58:00,77.8,65.1,30.09,South,186,7.0,11.0,65,0.00,,FEW030,0.00,62.00,VWS V14.00,2013-01-14 20:58:00,
2013-01-14 16:03:00,77.5,65.3,30.09,South,182,6.0,11.0,66,0.00,,FEW030,0.00,56.00,VWS V14.00,2013-01-14 21:03:00,
2013-01-14 16:08:00,77.1,65.3,30.09,SSE,164,5.0,8.0,67,0.00,,FEW030,0.00,56.00,VWS V14.00,2013-01-14 21:08:00,
2013-01-14 16:13:00,76.9,65.5,30.09,SSE,158,2.0,6.0,68,0.00,,FEW030,0.00,51.00,VWS V14.00,2013-01-14 21:13:00,
2013-01-14 16:18:00,76.8,65.4,30.09,South,169,2.0,4.0,68,0.00,,FEW030,0.00,51.00,VWS V14.00,2013-01-14 21:18:00,
2013-01-14 16:23:00,76.9,65.5,30.09,South,170,3.0,6.0,68,0.00,,FEW030,0.00,44.00,VWS V14.00,2013-01-14 21:23:00,
2013-01-14 16:28:00,76.9,65.1,30.09,SSW,197,7.0,9.0,67,0.00,,FEW030,0.00,37.00,VWS V14.00,2013-01-14 21:28:00,
2013-01-14 16:33:00,76.6,65.3,30.10,SSW,200,6.0,9.0,68,0.00,,FEW030,0.00,30.00,VWS V14.00,2013-01-14 21:33:00,
2013-01-14 16:38:00,76.3,65.0,30.09,SSW,199,1.0,5.0,68,0.00,,FEW030,0.00,30.00,VWS V14.00,2013-01-14 21:38:00,
2013-01-14 16:43:00,76.2,65.3,30.09,SSW,198,2.0,4.0,69,0.00,,FEW030,0.00,28.00,VWS V14.00,2013-01-14 21:43:00,
2013-01-14 16:48:00,76.2,65.3,30.10,South,175,4.0,5.0,69,0.00,,FEW030,0.00,25.00,VWS V14.00,2013-01-14 21:48:00,
2013-01-14 16:53:00,76.1,65.2,30.10,SSE,165,3.0,5.0,69,0.00,,FEW030,0.00,21.00,VWS V14.00,2013-01-14 21:53:00,
2013-01-14 16:58:00,76.1,65.2,30.10,SSE,165,0.0,4.0,69,0.00,,FEW030,0.00,16.00,VWS V14.00,2013-01-14 21:58:00,
2013-01-14 17:03:00,75.9,65.0,30.10,South,170,3.0,7.0,69,0.00,,FEW030,0.00,18.00,VWS V14.00,2013-01-14 22:03:00,
2013-01-14 17:08:00,75.8,64.9,30.11,SSE,167,2.0,5.0,69,0.00,,FEW030,0.00,26.00,VWS V14.00,2013-01-14 22:08:00,
2013-01-14 17:13:00,75.8,65.3,30.11,SSE,166,4.0,6.0,70,0.00,,FEW030,0.00,40.00,VWS V14.00,2013-01-14 22:13:00,
2013-01-14 17:18:00,75.9,65.4,30.11,SSE,163,6.0,11.0,70,0.00,,FEW030,0.00,35.00,VWS V14.00,2013-01-14 22:18:00,
2013-01-14 17:23:00,75.8,65.3,30.11,SSE,165,0.0,3.0,70,0.00,,FEW030,0.00,25.00,VWS V14.00,2013-01-14 22:23:00,
2013-01-14 17:28:00,75.7,65.6,30.11,SSE,165,0.0,0.0,71,0.00,,FEW030,0.00,25.00,VWS V14.00,2013-01-14 22:28:00,
2013-01-14 17:33:00,75.6,65.1,30.11,SSE,165,4.0,5.0,70,0.00,,SCT030,0.00,18.00,VWS V14.00,2013-01-14 22:33:00,
2013-01-14 17:38:00,75.5,65.4,30.11,SSE,167,7.0,7.0,71,0.00,,SCT030,0.00,12.00,VWS V14.00,2013-01-14 22:38:00,
2013-01-14 17:43:00,75.3,65.3,30.11,SSE,166,3.0,5.0,71,0.00,,SCT030,0.00,0.00,VWS V14.00,2013-01-14 22:43:00,
2013-01-14 17:48:00,75.1,65.5,30.12,SSE,165,0.0,1.0,72,0.00,,SCT030,0.00,0.00,VWS V14.00,2013-01-14 22:48:00,
2013-01-14 17:53:00,74.9,65.3,30.11,SSE,165,1.0,4.0,72,0.00,,SCT030,0.00,0.00,VWS V14.00,2013-01-14 22:53:00,
2013-01-14 17:58:00,74.7,65.5,30.12,SSE,165,0.0,1.0,73,0.00,,SCT030,0.00,0.00,VWS V14.00,2013-01-14 22:58:00,
2013-01-14 18:03:00,74.6,65.4,30.12,SSE,165,3.0,3.0,73,0.00,,SCT030,0.00,0.00,VWS V14.00,2013-01-14 23:03:00,
2013-01-14 18:09:00,74.5,65.3,30.12,SSE,165,0.0,1.0,73,0.00,,SCT030,0.00,0.00,VWS V14.00,2013-01-14 23:09:00,
2013-01-14 18:14:00,74.4,65.6,30.11,SSE,165,0.0,0.0,74,0.00,,SCT030,0.00,0.00,VWS V14.00,2013-01-14 23:14:00,
2013-01-14 18:19:00,74.3,65.5,30.12,SSE,165,0.0,0.0,74,0.00,,SCT030,0.00,0.00,VWS V14.00,2013-01-14 23:19:00,
2013-01-14 18:24:00,74.2,65.4,30.12,SSE,165,0.0,0.0,74,0.00,,SCT030,0.00,0.00,VWS V14.00,2013-01-14 23:24:00,
2013-01-14 18:29:00,74.0,65.2,30.12,SSE,165,0.0,0.0,74,0.00,,SCT030,0.00,0.00,VWS V14.00,2013-01-14 23:29:00,
2013-01-14 18:34:00,73.9,65.5,30.12,SSE,165,0.0,1.0,75,0.00,,SCT030,0.00,0.00,VWS V14.00,2013-01-14 23:34:00,
2013-01-14 18:39:00,73.8,65.4,30.12,SSE,165,0.0,0.0,75,0.00,,SCT030,0.00,0.00,VWS V14.00,2013-01-14 23:39:00,
2013-01-14 18:44:00,73.7,65.3,30.12,SSE,165,0.0,0.0,75,0.00,,SCT030,0.00,0.00,VWS V14.00,2013-01-14 23:44:00,
2013-01-14 18:49:00,73.5,65.1,30.12,SSE,165,0.0,0.0,75,0.00,,SCT030,0.00,0.00,VWS V14.00,2013-01-14 23:49:00,
2013-01-14 18:54:00,73.4,65.0,30.12,SSE,165,0.0,0.0,75,0.00,,SCT030,0.00,0.00,VWS V14.00,2013-01-14 23:54:00,
2013-01-14 18:59:00,73.3,64.9,30.12,SSE,165,0.0,0.0,75,0.00,,SCT030,0.00,0.00,VWS V14.00,2013-01-14 23:59:00,
2013-01-14 19:04:00,73.2,65.2,30.12,SSE,165,0.0,0.0,76,0.00,,SCT030,0.00,0.00,VWS V14.00,2013-01-15 00:04:00,
2013-01-14 19:09:00,73.1,65.1,30.12,SSE,165,0.0,0.0,76,0.00,,SCT030,0.00,0.00,VWS V14.00,2013-01-15 00:09:00,
2013-01-14 19:14:00,73.1,65.1,30.12,SSE,165,0.0,0.0,76,0.00,,SCT030,0.00,0.00,VWS V14.00,2013-01-15 00:14:00,
2013-01-14 19:19:00,73.0,65.0,30.12,SSE,165,0.0,0.0,76,0.00,,SCT030,0.00,0.00,VWS V14.00,2013-01-15 00:19:00,
2013-01-14 19:24:00,73.0,65.4,30.12,SSE,165,0.0,0.0,77,0.00,,SCT030,0.00,0.00,VWS V14.00,2013-01-15 00:24:00,
2013-01-14 19:29:00,72.9,65.3,30.12,SSE,165,0.0,0.0,77,0.00,,SCT030,0.00,0.00,VWS V14.00,2013-01-15 00:29:00,
2013-01-14 19:34:00,72.7,65.4,30.12,SSE,165,0.0,0.0,78,0.00,,SCT030,0.00,0.00,VWS V14.00,2013-01-15 00:34:00,
2013-01-14 19:39:00,72.6,65.3,30.13,SSE,165,0.0,0.0,78,0.00,,SCT030,0.00,0.00,VWS V14.00,2013-01-15 00:39:00,
2013-01-14 19:44:00,72.3,65.4,30.12,SSE,165,0.0,0.0,79,0.00,,SCT030,0.00,0.00,VWS V14.00,2013-01-15 00:44:00,
2013-01-14 19:49:00,72.1,65.6,30.12,SSE,165,0.0,0.0,80,0.00,,SCT030,0.00,0.00,VWS V14.00,2013-01-15 00:49:00,
2013-01-14 19:54:00,72.0,65.9,30.12,SSE,165,0.0,0.0,81,0.00,,SCT030,0.00,0.00,VWS V14.00,2013-01-15 00:54:00,
2013-01-14 19:59:00,71.6,65.5,30.12,SSE,165,0.0,0.0,81,0.00,,SCT030,0.00,0.00,VWS V14.00,2013-01-15 00:59:00,
2013-01-14 20:04:00,71.4,65.3,30.12,SSE,165,0.0,0.0,81,0.00,,SCT030,0.00,0.00,VWS V14.00,2013-01-15 01:04:00,
2013-01-14 20:09:00,71.2,65.8,30.12,SSE,165,0.0,0.0,83,0.00,,SCT030,0.00,0.00,VWS V14.00,2013-01-15 01:09:00,
2013-01-14 20:14:00,71.0,65.2,30.12,SSE,165,0.0,0.0,82,0.00,,SCT030,0.00,0.00,VWS V14.00,2013-01-15 01:14:00,
2013-01-14 20:19:00,70.8,65.4,30.11,SSE,165,0.0,0.0,83,0.00,,SCT030,0.00,0.00,VWS V14.00,2013-01-15 01:19:00,
2013-01-14 20:24:00,70.7,65.6,30.12,SSE,165,0.0,0.0,84,0.00,,SCT030,0.00,0.00,VWS V14.00,2013-01-15 01:24:00,
2013-01-14 20:29:00,70.6,65.5,30.11,SSE,165,0.0,0.0,84,0.00,,SCT030,0.00,0.00,VWS V14.00,2013-01-15 01:29:00,
2013-01-14 20:34:00,70.2,65.1,30.11,SSE,165,0.0,0.0,84,0.00,,SCT030,0.00,0.00,VWS V14.00,2013-01-15 01:34:00,
2013-01-14 20:39:00,69.9,64.8,30.11,SSE,165,0.0,0.0,84,0.00,,SCT030,0.00,0.00,VWS V14.00,2013-01-15 01:39:00,
2013-01-14 20:44:00,69.8,65.1,30.11,SSE,165,0.0,0.0,85,0.00,,SCT030,0.00,0.00,VWS V14.00,2013-01-15 01:44:00,
2013-01-14 20:49:00,69.7,65.3,30.12,SSE,165,0.0,0.0,86,0.00,,SCT030,0.00,0.00,VWS V14.00,2013-01-15 01:49:00,
2013-01-14 20:54:00,69.7,65.3,30.11,SSE,165,0.0,0.0,86,0.00,,SCT030,0.00,0.00,VWS V14.00,2013-01-15 01:54:00,
2013-01-14 20:59:00,69.5,65.1,30.11,SSE,165,0.0,0.0,86,0.00,,SCT030,0.00,0.00,VWS V14.00,2013-01-15 01:59:00,
2013-01-14 21:04:00,69.5,65.5,30.11,SSE,165,0.0,0.0,87,0.00,,SCT030,0.00,0.00,VWS V14.00,2013-01-15 02:04:00,
2013-01-14 21:09:00,69.5,65.5,30.11,SSE,165,0.0,0.0,87,0.00,,SCT030,0.00,0.00,VWS V14.00,2013-01-15 02:09:00,
2013-01-14 21:14:00,69.4,65.4,30.11,SSE,165,0.0,0.0,87,0.00,,SCT030,0.00,0.00,VWS V14.00,2013-01-15 02:14:00,
2013-01-14 21:19:00,69.3,65.3,30.11,SSE,165,0.0,0.0,87,0.00,,SCT030,0.00,0.00,VWS V14.00,2013-01-15 02:19:00,
2013-01-14 21:24:00,69.3,65.3,30.11,SSE,165,0.0,0.0,87,0.00,,SCT030,0.00,0.00,VWS V14.00,2013-01-15 02:24:00,
2013-01-14 21:29:00,69.3,65.3,30.11,SSE,165,0.0,0.0,87,0.00,,SCT030,0.00,0.00,VWS V14.00,2013-01-15 02:29:00,
2013-01-14 21:34:00,69.3,65.3,30.11,SSE,165,0.0,0.0,87,0.00,,SCT030,0.00,0.00,VWS V14.00,2013-01-15 02:34:00,
2013-01-14 21:39:00,69.3,65.6,30.11,SSE,165,0.0,0.0,88,0.00,,SCT030,0.00,0.00,VWS V14.00,2013-01-15 02:39:00,
2013-01-14 21:44:00,69.4,65.7,30.11,SSE,165,0.0,0.0,88,0.00,,SCT030,0.00,0.00,VWS V14.00,2013-01-15 02:44:00,
2013-01-14 21:49:00,69.4,65.7,30.11,SSE,165,0.0,0.0,88,0.00,,SCT030,0.00,0.00,VWS V14.00,2013-01-15 02:49:00,
2013-01-14 21:55:00,69.5,65.8,30.11,SSE,165,0.0,0.0,88,0.00,,SCT030,0.00,0.00,VWS V14.00,2013-01-15 02:55:00,
2013-01-14 22:00:00,69.4,65.7,30.11,SSE,165,0.0,0.0,88,0.00,,SCT030,0.00,0.00,VWS V14.00,2013-01-15 03:00:00,
2013-01-14 22:05:00,69.3,65.6,30.11,SSE,165,0.0,0.0,88,0.00,,SCT030,0.00,0.00,VWS V14.00,2013-01-15 03:05:00,
2013-01-14 22:10:00,69.4,65.7,30.11,SSE,165,0.0,0.0,88,0.00,,SCT030,0.00,0.00,VWS V14.00,2013-01-15 03:10:00,
2013-01-14 22:15:00,69.4,65.7,30.11,SSE,165,0.0,0.0,88,0.00,,SCT030,0.00,0.00,VWS V14.00,2013-01-15 03:15:00,
2013-01-14 22:20:00,69.3,65.6,30.11,SSE,165,0.0,0.0,88,0.00,,SCT030,0.00,0.00,VWS V14.00,2013-01-15 03:20:00,
2013-01-14 22:25:00,69.2,65.5,30.11,SSE,165,0.0,0.0,88,0.00,,SCT030,0.00,0.00,VWS V14.00,2013-01-15 03:25:00,
2013-01-14 22:30:00,69.0,65.3,30.11,SSE,165,0.0,0.0,88,0.00,,SCT030,0.00,0.00,VWS V14.00,2013-01-15 03:30:00,
2013-01-14 22:35:00,68.9,65.5,30.11,SSE,165,0.0,0.0,89,0.00,,SCT030,0.00,0.00,VWS V14.00,2013-01-15 03:35:00,
2013-01-14 22:40:00,68.8,65.4,30.10,SSE,165,0.0,0.0,89,0.00,,SCT030,0.00,0.00,VWS V14.00,2013-01-15 03:40:00,
2013-01-14 22:45:00,68.7,65.3,30.10,SSE,165,0.0,0.0,89,0.00,,SCT030,0.00,0.00,VWS V14.00,2013-01-15 03:45:00,
2013-01-14 22:50:00,68.7,65.3,30.10,SSE,165,0.0,0.0,89,0.00,,SCT030,0.00,0.00,VWS V14.00,2013-01-15 03:50:00,
2013-01-14 22:55:00,68.8,65.4,30.10,SSE,165,0.0,0.0,89,0.00,,SCT030,0.00,0.00,VWS V14.00,2013-01-15 03:55:00,
2013-01-14 23:00:00,68.7,65.3,30.10,SSE,165,0.0,0.0,89,0.00,,SCT030,0.00,0.00,VWS V14.00,2013-01-15 04:00:00,
2013-01-14 23:05:00,68.7,65.3,30.10,SSE,165,0.0,0.0,89,0.00,,SCT030,0.00,0.00,VWS V14.00,2013-01-15 04:05:00,
2013-01-14 23:10:00,68.6,65.2,30.10,SSE,165,0.0,0.0,89,0.00,,SCT030,0.00,0.00,VWS V14.00,2013-01-15 04:10:00,
2013-01-14 23:15:00,68.7,65.7,30.10,SSE,165,0.0,0.0,90,0.00,,SCT030,0.00,0.00,VWS V14.00,2013-01-15 04:15:00,
2013-01-14 23:20:00,68.7,65.7,30.10,SSE,165,0.0,0.0,90,0.00,,SCT030,0.00,0.00,VWS V14.00,2013-01-15 04:20:00,
2013-01-14 23:25:00,68.7,65.7,30.10,SSE,165,0.0,0.0,90,0.00,,SCT030,0.00,0.00,VWS V14.00,2013-01-15 04:25:00,
2013-01-14 23:30:00,68.6,65.6,30.10,SSE,165,0.0,0.0,90,0.00,,SCT030,0.00,0.00,VWS V14.00,2013-01-15 04:30:00,
2013-01-14 23:35:00,68.5,65.5,30.09,SSE,165,0.0,0.0,90,0.00,,SCT030,0.00,0.00,VWS V14.00,2013-01-15 04:35:00,
2013-01-14 23:40:00,68.3,65.3,30.09,SSE,165,0.0,0.0,90,0.00,,SCT030,0.00,0.00,VWS V14.00,2013-01-15 04:40:00,
2013-01-14 23:45:00,68.4,65.4,30.09,SSE,165,0.0,0.0,90,0.00,,SCT030,0.00,0.00,VWS V14.00,2013-01-15 04:45:00,
2013-01-14 23:50:00,68.4,65.4,30.09,SSE,165,0.0,0.0,90,0.00,,SCT030,0.00,0.00,VWS V14.00,2013-01-15 04:50:00,
2013-01-14 23:55:00,68.4,65.4,30.09,SSE,165,0.0,0.0,90,0.00,,SCT030,0.00,0.00,VWS V14.00,2013-01-15 04:55:00,